• Join FlightAware (Why Join?)
  • Login
  • US Flag 
11:18AM EDT


 

Airport Tracker/Info


-or-


 

Live Flight TrackerFlight Track Log ✈ RPA4907 ✈ 05-Jul-2013 ✈ KBWI - KEWR

Flight Track Log - Related Links

Times and Time Zones

All times are in EDT time to prevent confusion due to time zone crossing. See the RPA4907 flight status page for this flight to view local times or setup timezone preferences in your user account.

Time Position Orientation Groundspeed Altitude Reporting Facility
EDT Latitude Longitude Course Direction KTS MPH feet Rate Location/Type
02:09PM 39.2167 -76.7333 43° Northeast 238 274 2,300  Level Potomac TRACON
02:10PM 39.2667 -76.6833 38° Northeast 279 321 3,700 1,620 Climbing Potomac TRACON
02:11PM 39.1500 -76.2613 90° East  Level FlightAware Approximate
02:11PM 39.2500 -76.6000 104° East 274 315 5,600  Level Potomac TRACON
02:12PM 39.1999 -76.1501 46° Northeast  Level FlightAware Approximate
02:12PM 39.2333 -76.5000 102° East 293 337 7,200  Level Potomac TRACON
02:13PM 39.2799 -76.0601 46° Northeast  Level FlightAware Approximate
02:13PM 39.2667 -76.4000 67° East 296 341 8,700  Level Potomac TRACON
02:14PM 39.3576 -75.9662 42° Northeast  Level FlightAware Approximate
02:14PM 39.3167 -76.3000 57° Northeast 302 348 10,100  Level Potomac TRACON
02:15PM 39.4362 -75.8733 43° Northeast  Level FlightAware Approximate
02:15PM 39.3500 -76.2000 67° East 325 374 10,700  Level Potomac TRACON
02:16PM 39.4000 -76.0667 64° Northeast 351 404 10,900 60 Climbing Philadelphia TRACON
02:17PM 39.4333 -75.9667 67° East 358 412 10,900  Level Philadelphia TRACON
02:18PM 39.4833 -75.8500 61° Northeast 352 405 11,000  Climbing Philadelphia TRACON
02:19PM 39.5500 -75.7500 49° Northeast 347 399 10,900 -60 Descending Philadelphia TRACON
02:20PM 39.6333 -75.6667 38° Northeast 346 398 10,900  Level Philadelphia TRACON
02:21PM 39.6833 -75.5667 57° Northeast 356 410 10,900  Level Philadelphia TRACON
02:22PM 39.7167 -75.4500 70° East 350 403 11,000  Climbing Philadelphia TRACON
02:23PM 39.7500 -75.3500 67° East 350 403 10,900 -180 Descending Philadelphia TRACON
02:24PM 39.7833 -75.2333 70° East 353 406 10,700 -360 Descending Philadelphia TRACON
02:25PM 39.8167 -75.1167 70° East 336 387 10,200 -600 Descending Philadelphia TRACON
02:26PM 39.8500 -75.0167 67° East 301 346 9,600 -540 Descending Philadelphia TRACON
02:27PM 39.9000 -74.9333 52° Northeast 293 337 9,200 -480 Descending Philadelphia TRACON
02:28PM 39.9667 -74.8500 44° Northeast 295 339 8,700 -720 Descending Philadelphia TRACON
02:29PM 40.0000 -74.8000 49° Northeast 303 349 8,000 -900 Descending New York TRACON
02:30PM 40.0500 -74.7167 52° Northeast 296 341 7,100 -480 Descending New York TRACON
02:31PM 40.1167 -74.6333 44° Northeast 293 337 7,100  Level New York TRACON
02:32PM 40.1667 -74.5500 52° Northeast 291 335 7,100 -60 Level New York TRACON
02:33PM 40.2333 -74.5333 11° North 287 330 7,000 -420 Descending New York TRACON
02:34PM 40.3000 -74.5500 349° North 274 315 6,400 -540 Descending New York TRACON
02:35PM 40.3833 -74.5667 351° North 275 316 6,000 -240 Descending New York TRACON
02:36PM 40.4667 -74.5833 351° North 279 321 6,000  Level New York TRACON
02:37PM 40.5333 -74.6000 349° North 274 315 6,000  Level New York TRACON
02:38PM 40.6167 -74.6000 360° North 277 319 6,000  Level New York TRACON
02:39PM 40.6833 -74.6167 349° North 282 325 6,000  Level New York TRACON
02:40PM 40.7667 -74.6167 360° North 284 327 6,000 -60 Level New York TRACON
02:41PM 40.8500 -74.5833 17° North 288 331 5,900 -480 Descending New York TRACON
02:42PM 40.9000 -74.5000 52° Northeast 289 333 5,100 -480 Descending New York TRACON
02:43PM 40.9500 -74.4333 45° Northeast 287 330 5,000 -60 Descending New York TRACON
02:44PM 41.0000 -74.3667 45° Northeast 261 300 5,000  Level New York TRACON
02:45PM 41.0333 -74.3000 56° Northeast 209 241 5,000 -240 Level New York TRACON
02:46PM 41.0167 -74.2333 108° East 202 232 4,600 -480 Descending New York TRACON
02:47PM 40.9833 -74.1500 118° Southeast 193 222 4,000 -480 Descending New York TRACON
02:48PM 40.9667 -74.1000 114° Southeast 185 213 3,600 -540 Descending New York TRACON
02:49PM 40.9167 -74.0833 166° South 181 208 3,000 -300 Descending New York TRACON
02:50PM 40.8667 -74.0667 166° South 174 200 3,000 -240 Level New York TRACON
02:51PM 40.8167 -74.0833 194° South 175 201 2,600 -420 Descending New York TRACON